Time;durP1;ratioP1;P1;durP2;ratioP2;P2;SDS_P1;SDS_P2;PMS_P1;PMS_P2;Temp;Humidity;BMP_temperature;BMP_pressure;BME280_temperature;BME280_humidity;BME280_pressure;Samples;Min_cycle;Max_cycle;Signal;HPM_P1;HPM_P2
2022/06/10 00:01:13;;;;;;;0.03;0.03;;;;;;;;;;6266915;22;20011;-50
2022/06/10 00:03:39;;;;;;;0.00;0.00;;;;;;;;;;6261460;22;20084;-50
2022/06/10 00:06:07;;;;;;;4.75;0.82;;;;;;;;;;6269148;22;20004;-52
2022/06/10 00:08:47;;;;;;;0.00;0.00;;;;;;;;;;6255958;22;20014;-52
2022/06/10 00:11:12;;;;;;;0.00;0.00;;;;;;;;;;6265417;22;20016;-49
2022/06/10 00:13:39;;;;;;;0.15;0.15;;;;;;;;;;6266127;22;20452;-52
2022/06/10 00:16:05;;;;;;;0.30;0.25;;;;;;;;;;6266418;22;20007;-47
2022/06/10 00:18:30;;;;;;;0.47;0.47;;;;;;;;;;6265613;22;20042;-48
2022/06/10 00:20:56;;;;;;;0.10;0.10;;;;;;;;;;6264496;22;20011;-53
2022/06/10 00:23:22;;;;;;;0.00;0.00;;;;;;;;;;6264545;22;20011;-47
2022/06/10 00:25:47;;;;;;;0.00;0.00;;;;;;;;;;6265732;22;20264;-48
2022/06/10 00:28:13;;;;;;;0.20;0.20;;;;;;;;;;6265564;22;20039;-49
2022/06/10 00:30:38;;;;;;;0.20;0.20;;;;;;;;;;6263976;22;20039;-49
2022/06/10 00:33:05;;;;;;;0.00;0.00;;;;;;;;;;6265332;22;20034;-49
2022/06/10 00:35:30;;;;;;;0.00;0.00;;;;;;;;;;6265069;22;20007;-50
2022/06/10 00:37:56;;;;;;;0.73;0.73;;;;;;;;;;6264727;22;20007;-49
2022/06/10 00:40:26;;;;;;;0.22;0.05;;;;;;;;;;6265227;22;20089;-50
2022/06/10 00:42:54;;;;;;;5.15;1.10;;;;;;;;;;6265980;22;20000;-47
2022/06/10 00:45:38;;;;;;;0.00;0.00;;;;;;;;;;6263216;22;20026;-51
2022/06/10 00:48:03;;;;;;;0.00;0.00;;;;;;;;;;6267716;22;20104;-47
2022/06/10 00:50:29;;;;;;;0.25;0.25;;;;;;;;;;6261214;22;20451;-47
2022/06/10 00:53:04;;;;;;;0.10;0.10;;;;;;;;;;6268955;22;20016;-47
2022/06/10 00:55:30;;;;;;;0.00;0.00;;;;;;;;;;6265746;22;20355;-47
2022/06/10 00:58:00;;;;;;;1.02;1.02;;;;;;;;;;6267644;22;20038;-50
2022/06/10 01:00:25;;;;;;;0.08;0.08;;;;;;;;;;6259092;22;20087;-49
2022/06/10 01:02:51;;;;;;;0.10;0.10;;;;;;;;;;6264657;22;20386;-48
2022/06/10 01:05:18;;;;;;;0.00;0.00;;;;;;;;;;6258883;22;20007;-49
2022/06/10 01:07:45;;;;;;;4.28;0.28;;;;;;;;;;6264159;22;20014;-48
2022/06/10 01:10:12;;;;;;;0.05;0.05;;;;;;;;;;6265989;22;20063;-52
2022/06/10 01:13:00;;;;;;;0.00;0.00;;;;;;;;;;6253120;22;20051;-49
2022/06/10 01:15:30;;;;;;;0.00;0.00;;;;;;;;;;6260571;22;20031;-48
2022/06/10 01:18:13;;;;;;;10.15;0.80;;;;;;;;;;6264892;22;20023;-51
2022/06/10 01:20:54;;;;;;;0.10;0.10;;;;;;;;;;6264548;22;20015;-49
2022/06/10 01:23:38;;;;;;;0.70;0.70;;;;;;;;;;6263697;22;20016;-51
2022/06/10 01:26:17;;;;;;;0.00;0.00;;;;;;;;;;6258688;22;20015;-51
2022/06/10 01:28:52;;;;;;;0.65;0.10;;;;;;;;;;6264491;22;20043;-51
2022/06/10 01:31:29;;;;;;;0.47;0.47;;;;;;;;;;6258493;22;20029;-52
2022/06/10 01:34:10;;;;;;;0.63;0.60;;;;;;;;;;6266631;22;20058;-48
2022/06/10 01:36:54;;;;;;;0.00;0.00;;;;;;;;;;6268396;22;20016;-46
2022/06/10 01:39:19;;;;;;;0.00;0.00;;;;;;;;;;6259655;22;20022;-48
2022/06/10 01:41:51;;;;;;;0.00;0.00;;;;;;;;;;6238891;22;20000;-50
2022/06/10 01:44:27;;;;;;;0.20;0.20;;;;;;;;;;6260757;22;20095;-51
2022/06/10 01:47:00;;;;;;;0.00;0.00;;;;;;;;;;6267856;22;20027;-48
2022/06/10 01:49:41;;;;;;;0.00;0.00;;;;;;;;;;6234500;22;20104;-48
2022/06/10 01:52:16;;;;;;;0.20;0.20;;;;;;;;;;6258660;22;20019;-51
2022/06/10 01:55:01;;;;;;;0.00;0.00;;;;;;;;;;6260120;22;20012;-49
2022/06/10 01:57:38;;;;;;;0.00;0.00;;;;;;;;;;6267270;22;20023;-51
2022/06/10 02:00:08;;;;;;;0.00;0.00;;;;;;;;;;6267416;22;20631;-52
2022/06/10 02:02:37;;;;;;;7.30;1.33;;;;;;;;;;6265704;22;20004;-50
2022/06/10 02:05:09;;;;;;;0.00;0.00;;;;;;;;;;6267703;22;20039;-47
2022/06/10 02:07:38;;;;;;;0.00;0.00;;;;;;;;;;6263602;22;20537;-47
2022/06/10 02:10:09;;;;;;;0.00;0.00;;;;;;;;;;6267907;22;20103;-47
2022/06/10 02:12:37;;;;;;;0.10;0.10;;;;;;;;;;6270805;22;20007;-49
2022/06/10 02:15:10;;;;;;;0.10;0.10;;;;;;;;;;6262541;22;20192;-51
2022/06/10 02:17:38;;;;;;;0.08;0.08;;;;;;;;;;6267805;22;20008;-50
2022/06/10 02:20:03;;;;;;;0.32;0.25;;;;;;;;;;6267441;22;20044;-50
2022/06/10 02:22:37;;;;;;;0.00;0.00;;;;;;;;;;6266069;22;20035;-49
2022/06/10 02:25:08;;;;;;;0.10;0.10;;;;;;;;;;6267006;22;20396;-50
2022/06/10 02:27:36;;;;;;;0.00;0.00;;;;;;;;;;6266091;22;20016;-47
2022/06/10 02:30:06;;;;;;;0.00;0.00;;;;;;;;;;6263935;22;20575;-47
2022/06/10 02:32:31;;;;;;;;;;;;;;;;;;6240835;22;20011;-49
2022/06/10 02:34:57;;;;;;;0.00;0.00;;;;;;;;;;6265936;22;19934;-47
2022/06/10 02:37:46;;;;;;;0.70;0.70;;;;;;;;;;6266179;22;20019;-49
2022/06/10 02:40:24;;;;;;;4.50;0.70;;;;;;;;;;6268023;22;20274;-51
2022/06/10 02:43:08;;;;;;;0.35;0.15;;;;;;;;;;6267887;22;20004;-48
2022/06/10 02:45:51;;;;;;;0.28;0.28;;;;;;;;;;6256829;22;19995;-48
2022/06/10 02:48:25;;;;;;;0.20;0.20;;;;;;;;;;6260703;22;20012;-49
2022/06/10 02:50:50;;;;;;;0.95;0.13;;;;;;;;;;6268690;22;20020;-48
2022/06/10 02:53:17;;;;;;;0.13;0.13;;;;;;;;;;6266916;22;20228;-52
2022/06/10 02:55:43;;;;;;;0.00;0.00;;;;;;;;;;6237281;22;20016;-49
2022/06/10 03:01:13;;;;;;;0.00;0.00;;;;;;;;;;6263723;22;20247;-52
2022/06/10 03:03:45;;;;;;;0.00;0.00;;;;;;;;;;6270395;22;20003;-52
2022/06/10 03:06:15;;;;;;;0.10;0.10;;;;;;;;;;6260136;22;20008;-48
2022/06/10 03:08:42;;;;;;;0.10;0.10;;;;;;;;;;6268226;22;20000;-51
2022/06/10 03:11:15;;;;;;;0.93;0.40;;;;;;;;;;6265156;22;20228;-52
2022/06/10 03:13:43;;;;;;;1.55;1.45;;;;;;;;;;6268965;22;20004;-48
2022/06/10 03:16:08;;;;;;;0.00;0.00;;;;;;;;;;6260827;22;20016;-46
2022/06/10 03:19:00;;;;;;;0.00;0.00;;;;;;;;;;6266376;22;20055;-50
2022/06/10 03:21:32;;;;;;;16.35;0.50;;;;;;;;;;6256294;22;20016;-48
2022/06/10 03:24:07;;;;;;;0.20;0.20;;;;;;;;;;6265839;22;20404;-49
2022/06/10 03:26:40;;;;;;;0.00;0.00;;;;;;;;;;6270547;22;20023;-52
2022/06/10 03:29:08;;;;;;;0.00;0.00;;;;;;;;;;6260685;22;20008;-51
2022/06/10 03:31:34;;;;;;;0.10;0.10;;;;;;;;;;6258173;22;20016;-51
2022/06/10 03:34:02;;;;;;;0.68;0.68;;;;;;;;;;6269547;22;20030;-48
2022/06/10 03:36:28;;;;;;;0.25;0.25;;;;;;;;;;6266402;22;20527;-47
2022/06/10 03:38:53;;;;;;;0.85;0.85;;;;;;;;;;6261485;22;20026;-49
2022/06/10 03:41:24;;;;;;;0.28;0.28;;;;;;;;;;6267374;22;20012;-47
2022/06/10 03:43:51;;;;;;;0.00;0.00;;;;;;;;;;6255899;22;20003;-52
2022/06/10 03:46:17;;;;;;;2.67;1.65;;;;;;;;;;6265936;22;20258;-53
2022/06/10 03:48:43;;;;;;;0.10;0.10;;;;;;;;;;6265881;22;20474;-47
2022/06/10 03:51:10;;;;;;;0.00;0.00;;;;;;;;;;6265336;22;20020;-48
2022/06/10 03:53:35;;;;;;;1.20;0.73;;;;;;;;;;6236827;22;20011;-47
2022/06/10 03:56:00;;;;;;;2.65;0.35;;;;;;;;;;6266769;22;20003;-50
2022/06/10 03:58:26;;;;;;;0.38;0.38;;;;;;;;;;6267915;22;20087;-53
2022/06/10 04:00:51;;;;;;;12.90;0.68;;;;;;;;;;6255164;22;20019;-48
2022/06/10 04:03:17;;;;;;;0.00;0.00;;;;;;;;;;6263218;22;20007;-49
2022/06/10 04:05:42;;;;;;;0.00;0.00;;;;;;;;;;6260828;22;20387;-50
2022/06/10 04:08:08;;;;;;;3.10;1.65;;;;;;;;;;6263913;22;20110;-50
2022/06/10 04:10:33;;;;;;;0.00;0.00;;;;;;;;;;6259421;22;20041;-51
2022/06/10 04:12:58;;;;;;;0.30;0.30;;;;;;;;;;6266296;22;20051;-47
2022/06/10 04:15:26;;;;;;;0.00;0.00;;;;;;;;;;6258855;22;20011;-48
2022/06/10 04:17:51;;;;;;;0.00;0.00;;;;;;;;;;6264024;22;20012;-47
2022/06/10 04:20:19;;;;;;;0.45;0.45;;;;;;;;;;6261426;22;20043;-46
2022/06/10 04:22:44;;;;;;;8.57;1.85;;;;;;;;;;6263038;22;20572;-49
2022/06/10 04:25:09;;;;;;;1.48;1.02;;;;;;;;;;6261016;22;20008;-47
2022/06/10 04:27:35;;;;;;;0.00;0.00;;;;;;;;;;6262679;22;20023;-47
2022/06/10 04:30:00;;;;;;;0.05;0.05;;;;;;;;;;6263177;22;20106;-50
2022/06/10 04:32:26;;;;;;;0.68;0.13;;;;;;;;;;6262456;22;20374;-50
2022/06/10 04:34:51;;;;;;;0.52;0.45;;;;;;;;;;6259031;22;20192;-48
2022/06/10 04:37:16;;;;;;;2.00;0.38;;;;;;;;;;6260979;22;20016;-50
2022/06/10 04:39:42;;;;;;;0.00;0.00;;;;;;;;;;6264690;22;20055;-50
2022/06/10 04:42:07;;;;;;;0.00;0.00;;;;;;;;;;6261747;22;20322;-49
2022/06/10 04:44:32;;;;;;;0.15;0.15;;;;;;;;;;6264982;22;20011;-49
2022/06/10 04:46:58;;;;;;;0.15;0.15;;;;;;;;;;6262047;22;20038;-47
2022/06/10 04:49:23;;;;;;;0.13;0.13;;;;;;;;;;6264015;22;20019;-49
2022/06/10 04:51:48;;;;;;;0.00;0.00;;;;;;;;;;6261810;22;20016;-49
2022/06/10 04:54:14;;;;;;;0.00;0.00;;;;;;;;;;6261483;22;20018;-48
2022/06/10 04:56:39;;;;;;;0.00;0.00;;;;;;;;;;6260591;22;20034;-48
2022/06/10 04:59:04;;;;;;;0.32;0.32;;;;;;;;;;6264173;22;20046;-48
2022/06/10 05:01:30;;;;;;;1.48;0.30;;;;;;;;;;6255138;22;20022;-48
2022/06/10 05:03:55;;;;;;;0.57;0.57;;;;;;;;;;6258576;22;20073;-49
2022/06/10 05:06:20;;;;;;;0.88;0.80;;;;;;;;;;6262716;22;20011;-49
2022/06/10 05:08:45;;;;;;;0.00;0.00;;;;;;;;;;6260408;22;20007;-51
2022/06/10 05:11:11;;;;;;;1.30;0.75;;;;;;;;;;6261137;22;20019;-50
2022/06/10 05:13:36;;;;;;;0.00;0.00;;;;;;;;;;6260407;22;20027;-49
2022/06/10 05:16:02;;;;;;;0.10;0.10;;;;;;;;;;6265767;22;20030;-49
2022/06/10 05:18:27;;;;;;;2.80;0.88;;;;;;;;;;6257068;22;20007;-52
2022/06/10 05:20:53;;;;;;;2.08;1.02;;;;;;;;;;6266654;22;20023;-51
2022/06/10 05:23:19;;;;;;;0.75;0.75;;;;;;;;;;6256674;22;20672;-48
2022/06/10 05:25:45;;;;;;;1.08;1.00;;;;;;;;;;6236798;22;20034;-48
2022/06/10 05:28:11;;;;;;;0.00;0.00;;;;;;;;;;6259887;22;20012;-49
2022/06/10 05:30:37;;;;;;;0.00;0.00;;;;;;;;;;6252455;22;20021;-49
2022/06/10 05:33:03;;;;;;;0.10;0.10;;;;;;;;;;6261872;22;20731;-46
2022/06/10 05:35:29;;;;;;;0.00;0.00;;;;;;;;;;6261291;22;20011;-49
2022/06/10 05:37:56;;;;;;;0.20;0.20;;;;;;;;;;6261941;22;20075;-48
2022/06/10 05:40:22;;;;;;;0.30;0.30;;;;;;;;;;6262900;22;20098;-47
2022/06/10 05:42:47;;;;;;;0.15;0.10;;;;;;;;;;6263339;22;20200;-50
2022/06/10 05:45:14;;;;;;;1.88;0.65;;;;;;;;;;6257390;22;20601;-48
2022/06/10 05:47:40;;;;;;;4.13;0.50;;;;;;;;;;6264881;22;20019;-47
2022/06/10 05:50:07;;;;;;;2.38;2.00;;;;;;;;;;6259638;22;20024;-51
2022/06/10 05:52:32;;;;;;;0.10;0.10;;;;;;;;;;6262965;22;20015;-49
2022/06/10 05:55:00;;;;;;;0.00;0.00;;;;;;;;;;6257579;22;20007;-51
2022/06/10 05:57:26;;;;;;;0.38;0.38;;;;;;;;;;6262054;22;20034;-48
2022/06/10 05:59:52;;;;;;;0.35;0.17;;;;;;;;;;6260773;22;20007;-50
2022/06/10 06:02:18;;;;;;;0.00;0.00;;;;;;;;;;6258593;22;20030;-49
2022/06/10 06:04:44;;;;;;;0.30;0.30;;;;;;;;;;6262780;22;20015;-49
2022/06/10 06:07:11;;;;;;;0.00;0.00;;;;;;;;;;6251039;22;20023;-51
2022/06/10 06:09:36;;;;;;;0.00;0.00;;;;;;;;;;6264749;22;20011;-52
2022/06/10 06:12:01;;;;;;;3.13;0.10;;;;;;;;;;6260580;22;20707;-53
2022/06/10 06:14:28;;;;;;;0.00;0.00;;;;;;;;;;6262789;22;20027;-49
2022/06/10 06:16:55;;;;;;;0.00;0.00;;;;;;;;;;6261381;22;20018;-50
2022/06/10 06:19:20;;;;;;;0.00;0.00;;;;;;;;;;6260377;22;20037;-53
2022/06/10 06:21:46;;;;;;;0.22;0.20;;;;;;;;;;6260679;22;20031;-51
2022/06/10 06:24:11;;;;;;;0.00;0.00;;;;;;;;;;6235533;22;20016;-50
2022/06/10 06:26:36;;;;;;;0.00;0.00;;;;;;;;;;6259988;22;20035;-48
2022/06/10 06:29:02;;;;;;;2.63;0.57;;;;;;;;;;6263361;22;20008;-52
2022/06/10 06:31:27;;;;;;;0.00;0.00;;;;;;;;;;6228723;22;20039;-52
2022/06/10 06:33:53;;;;;;;0.10;0.10;;;;;;;;;;6261961;22;20640;-53
2022/06/10 06:36:20;;;;;;;0.00;0.00;;;;;;;;;;6258500;22;20015;-54
2022/06/10 06:38:45;;;;;;;0.00;0.00;;;;;;;;;;6263384;22;20012;-53
2022/06/10 06:41:11;;;;;;;1.40;0.80;;;;;;;;;;6262823;22;20250;-51
2022/06/10 06:43:36;;;;;;;0.28;0.28;;;;;;;;;;6263337;22;20019;-52
2022/06/10 06:46:01;;;;;;;0.00;0.00;;;;;;;;;;6264388;22;20003;-49
2022/06/10 06:48:27;;;;;;;0.65;0.32;;;;;;;;;;6262657;22;20463;-48
2022/06/10 06:50:52;;;;;;;0.00;0.00;;;;;;;;;;6263998;22;20093;-47
2022/06/10 06:53:18;;;;;;;0.25;0.20;;;;;;;;;;6262471;22;20031;-48
2022/06/10 06:55:43;;;;;;;1.02;0.43;;;;;;;;;;6265485;22;20012;-47
2022/06/10 06:58:11;;;;;;;0.15;0.15;;;;;;;;;;6261904;22;20065;-49
2022/06/10 07:00:36;;;;;;;5.18;0.30;;;;;;;;;;6263814;22;20015;-48
2022/06/10 07:03:01;;;;;;;0.10;0.10;;;;;;;;;;6266742;22;20064;-47
2022/06/10 07:05:27;;;;;;;0.00;0.00;;;;;;;;;;6259596;22;20012;-51
2022/06/10 07:07:52;;;;;;;0.00;0.00;;;;;;;;;;6266241;22;20367;-50
2022/06/10 07:10:19;;;;;;;0.00;0.00;;;;;;;;;;6258914;22;20028;-50
2022/06/10 07:12:44;;;;;;;0.15;0.15;;;;;;;;;;6266368;22;20008;-47
2022/06/10 07:15:10;;;;;;;0.00;0.00;;;;;;;;;;6263582;22;20022;-47
2022/06/10 07:17:35;;;;;;;0.13;0.13;;;;;;;;;;6264894;22;20038;-50
2022/06/10 07:20:01;;;;;;;0.10;0.10;;;;;;;;;;6235241;22;20018;-48
2022/06/10 07:22:26;;;;;;;0.40;0.40;;;;;;;;;;6265005;22;20012;-48
2022/06/10 07:24:55;;;;;;;0.10;0.10;;;;;;;;;;6261287;22;20012;-48
2022/06/10 07:27:20;;;;;;;0.00;0.00;;;;;;;;;;6264489;22;20008;-49
2022/06/10 07:29:46;;;;;;;0.00;0.00;;;;;;;;;;6258315;22;20023;-52
2022/06/10 07:32:11;;;;;;;3.53;2.30;;;;;;;;;;6263693;22;20092;-51
2022/06/10 07:34:36;;;;;;;0.10;0.10;;;;;;;;;;6263714;22;20023;-49
2022/06/10 07:37:01;;;;;;;0.45;0.25;;;;;;;;;;6234255;22;20910;-51
2022/06/10 07:39:27;;;;;;;0.03;0.03;;;;;;;;;;6253703;22;20645;-53
2022/06/10 07:42:00;;;;;;;0.32;0.30;;;;;;;;;;6261305;22;20032;-48
2022/06/10 07:44:26;;;;;;;0.00;0.00;;;;;;;;;;6258906;22;20012;-48
2022/06/10 07:46:53;;;;;;;0.10;0.10;;;;;;;;;;6265681;22;20015;-50
2022/06/10 07:49:19;;;;;;;0.00;0.00;;;;;;;;;;6264679;22;20004;-49
2022/06/10 07:51:44;;;;;;;0.10;0.10;;;;;;;;;;6267547;22;20285;-48
2022/06/10 07:54:10;;;;;;;0.03;0.03;;;;;;;;;;6263006;22;20007;-49
2022/06/10 07:56:35;;;;;;;0.08;0.08;;;;;;;;;;6262001;22;20729;-49
2022/06/10 07:59:01;;;;;;;0.32;0.32;;;;;;;;;;6265987;22;20034;-51
2022/06/10 08:01:27;;;;;;;13.15;0.25;;;;;;;;;;6258750;22;20509;-52
2022/06/10 08:03:52;;;;;;;0.00;0.00;;;;;;;;;;6265403;22;20012;-47
2022/06/10 08:06:19;;;;;;;0.00;0.00;;;;;;;;;;6266508;22;20038;-47
2022/06/10 08:08:45;;;;;;;0.00;0.00;;;;;;;;;;6263771;22;20109;-49
2022/06/10 08:11:10;;;;;;;0.88;0.52;;;;;;;;;;6264496;22;20022;-51
2022/06/10 08:13:35;;;;;;;0.00;0.00;;;;;;;;;;6257319;22;20004;-48
2022/06/10 08:16:01;;;;;;;0.00;0.00;;;;;;;;;;6263954;22;20106;-49
2022/06/10 08:18:26;;;;;;;0.22;0.22;;;;;;;;;;6257614;22;20185;-53
2022/06/10 08:23:37;;;;;;;0.00;0.00;;;;;;;;;;6255213;22;20015;-53
2022/06/10 08:26:04;;;;;;;0.00;0.00;;;;;;;;;;6263802;22;20019;-49
2022/06/10 08:28:29;;;;;;;0.00;0.00;;;;;;;;;;6258102;22;20011;-53
2022/06/10 08:30:55;;;;;;;8.10;0.57;;;;;;;;;;6265231;22;20024;-49
2022/06/10 08:33:20;;;;;;;0.05;0.05;;;;;;;;;;6258015;22;20225;-50
2022/06/10 08:35:48;;;;;;;0.20;0.20;;;;;;;;;;6259434;22;20024;-53
2022/06/10 08:38:15;;;;;;;0.00;0.00;;;;;;;;;;6257823;22;20012;-51
2022/06/10 08:40:40;;;;;;;0.00;0.00;;;;;;;;;;6262280;22;20010;-53
2022/06/10 08:43:13;;;;;;;0.73;0.30;;;;;;;;;;6259275;22;20086;-50
2022/06/10 08:45:46;;;;;;;0.10;0.10;;;;;;;;;;6257910;22;20774;-49
2022/06/10 08:48:11;;;;;;;0.00;0.00;;;;;;;;;;6215521;22;20011;-50
2022/06/10 08:50:58;;;;;;;0.00;0.00;;;;;;;;;;6262273;22;20019;-49
2022/06/10 08:53:33;;;;;;;0.00;0.00;;;;;;;;;;6263923;22;20233;-50
2022/06/10 08:56:17;;;;;;;0.00;0.00;;;;;;;;;;6256024;22;20008;-52
2022/06/10 08:58:50;;;;;;;0.00;0.00;;;;;;;;;;6264756;22;20011;-50
2022/06/10 09:01:18;;;;;;;0.00;0.00;;;;;;;;;;6262080;22;20295;-50
2022/06/10 09:03:46;;;;;;;0.00;0.00;;;;;;;;;;6268795;22;20428;-52
2022/06/10 09:06:14;;;;;;;0.00;0.00;;;;;;;;;;6270293;22;20000;-52
2022/06/10 09:08:42;;;;;;;0.30;0.20;;;;;;;;;;6261698;22;20024;-52
2022/06/10 09:11:22;;;;;;;0.10;0.10;;;;;;;;;;6268282;22;20024;-50
2022/06/10 09:13:55;;;;;;;0.70;0.50;;;;;;;;;;6265655;22;20015;-48
2022/06/10 09:16:29;;;;;;;0.45;0.45;;;;;;;;;;6265513;22;20007;-52
2022/06/10 09:19:10;;;;;;;0.43;0.43;;;;;;;;;;6244052;22;20031;-46
2022/06/10 09:21:35;;;;;;;0.00;0.00;;;;;;;;;;6262507;22;20034;-50
2022/06/10 09:24:08;;;;;;;0.00;0.00;;;;;;;;;;6270595;22;20008;-51
2022/06/10 09:40:38;;;;;;;0.00;0.00;;;;;;;;;;6047733;22;1499614;-51
2022/06/10 09:43:21;;;;;;;0.00;0.00;;;;;;;;;;6095845;23;20022;-50
2022/06/10 09:45:50;;;;;;;0.00;0.00;;;;;;;;;;6096602;23;20073;-49
2022/06/10 09:48:26;;;;;;;0.93;0.55;;;;;;;;;;6094855;23;20014;-51
2022/06/10 09:50:58;;;;;;;0.00;0.00;;;;;;;;;;6097511;23;20006;-53
2022/06/10 09:53:36;;;;;;;0.00;0.00;;;;;;;;;;6093446;23;20025;-52
2022/06/10 09:56:01;;;;;;;0.00;0.00;;;;;;;;;;6095152;23;20349;-49
2022/06/10 09:58:30;;;;;;;1.08;0.65;;;;;;;;;;6093361;23;20033;-48
2022/06/10 10:00:58;;;;;;;0.37;0.37;;;;;;;;;;6097306;23;20022;-50
2022/06/10 10:03:24;;;;;;;0.20;0.20;;;;;;;;;;6098761;23;20010;-52
2022/06/10 10:05:52;;;;;;;0.00;0.00;;;;;;;;;;6099117;23;20022;-50
2022/06/10 10:08:36;;;;;;;0.10;0.10;;;;;;;;;;6094869;23;20029;-51
2022/06/10 10:11:04;;;;;;;0.00;0.00;;;;;;;;;;6098092;23;20011;-50
2022/06/10 10:13:40;;;;;;;0.00;0.00;;;;;;;;;;6096326;23;20619;-49
2022/06/10 10:16:06;;;;;;;0.00;0.00;;;;;;;;;;6097341;23;20085;-52
2022/06/10 10:18:43;;;;;;;0.30;0.30;;;;;;;;;;6093548;23;20101;-52
2022/06/10 10:21:13;;;;;;;0.03;0.03;;;;;;;;;;6095379;23;20089;-50
2022/06/10 10:23:41;;;;;;;0.20;0.20;;;;;;;;;;6097361;23;20014;-48
2022/06/10 10:26:15;;;;;;;0.52;0.52;;;;;;;;;;6094605;23;20027;-52
2022/06/10 10:28:42;;;;;;;0.10;0.10;;;;;;;;;;6096854;23;20006;-52
2022/06/10 10:31:25;;;;;;;0.00;0.00;;;;;;;;;;6093946;23;20022;-54
2022/06/10 10:33:50;;;;;;;6.18;0.43;;;;;;;;;;6096962;23;20078;-55
2022/06/10 10:36:28;;;;;;;0.00;0.00;;;;;;;;;;6092288;23;20006;-49
2022/06/10 10:38:53;;;;;;;0.00;0.00;;;;;;;;;;6103246;23;20053;-49
2022/06/10 10:41:19;;;;;;;0.10;0.10;;;;;;;;;;6116253;23;20113;-50
2022/06/10 10:43:45;;;;;;;0.10;0.10;;;;;;;;;;6113923;23;20069;-49
2022/06/10 10:46:27;;;;;;;0.03;0.03;;;;;;;;;;6114539;23;20049;-50
2022/06/10 10:48:53;;;;;;;0.00;0.00;;;;;;;;;;6117689;23;20014;-49
2022/06/10 10:51:23;;;;;;;0.00;0.00;;;;;;;;;;6112752;23;20017;-48
2022/06/10 10:53:49;;;;;;;0.00;0.00;;;;;;;;;;6123340;23;20014;-48
2022/06/10 10:56:15;;;;;;;0.00;0.00;;;;;;;;;;6115222;23;20029;-52
2022/06/10 10:58:51;;;;;;;0.30;0.30;;;;;;;;;;6121314;23;20046;-51
2022/06/10 11:01:43;;;;;;;0.00;0.00;;;;;;;;;;6121198;23;20018;-51
2022/06/10 11:04:10;;;;;;;0.25;0.25;;;;;;;;;;6113527;23;20033;-52
2022/06/10 11:06:36;;;;;;;0.00;0.00;;;;;;;;;;6118370;23;20096;-50
2022/06/10 11:09:21;;;;;;;0.00;0.00;;;;;;;;;;6115290;23;20081;-53
2022/06/10 11:11:47;;;;;;;0.00;0.00;;;;;;;;;;6113358;23;20017;-53
2022/06/10 11:14:29;;;;;;;0.00;0.00;;;;;;;;;;6120669;23;20034;-54
2022/06/10 11:16:58;;;;;;;0.00;0.00;;;;;;;;;;6117034;23;20025;-48
2022/06/10 11:19:40;;;;;;;0.00;0.00;;;;;;;;;;6119675;23;20024;-48
2022/06/10 11:22:24;;;;;;;0.85;0.43;;;;;;;;;;6117779;23;20014;-50
2022/06/10 11:25:14;;;;;;;0.15;0.15;;;;;;;;;;6115878;23;20010;-52
2022/06/10 11:27:41;;;;;;;2.95;0.45;;;;;;;;;;6103425;23;20022;-51
2022/06/10 11:30:10;;;;;;;0.10;0.10;;;;;;;;;;6116627;23;20461;-51
2022/06/10 11:32:37;;;;;;;0.10;0.10;;;;;;;;;;6121474;23;20029;-52
2022/06/10 11:35:21;;;;;;;0.00;0.00;;;;;;;;;;6115782;23;20022;-52
2022/06/10 11:37:49;;;;;;;0.00;0.00;;;;;;;;;;6114020;23;20041;-50
2022/06/10 11:40:16;;;;;;;0.32;0.20;;;;;;;;;;6118613;23;20026;-50
2022/06/10 11:42:45;;;;;;;0.00;0.00;;;;;;;;;;6121163;23;20303;-53
2022/06/10 11:45:16;;;;;;;7.15;0.88;;;;;;;;;;6115886;23;20018;-50
2022/06/10 11:47:46;;;;;;;0.10;0.10;;;;;;;;;;6121045;23;20034;-52
2022/06/10 11:50:16;;;;;;;0.00;0.00;;;;;;;;;;6112991;23;20009;-53
2022/06/10 11:52:49;;;;;;;0.10;0.10;;;;;;;;;;6121094;23;20009;-51
2022/06/10 11:55:18;;;;;;;0.00;0.00;;;;;;;;;;6118996;23;20017;-52
2022/06/10 12:00:36;;;;;;;0.00;0.00;;;;;;;;;;6113996;23;20025;-50
2022/06/10 12:03:11;;;;;;;0.30;0.15;;;;;;;;;;6119861;23;20093;-51
2022/06/10 12:05:44;;;;;;;0.05;0.05;;;;;;;;;;6115904;23;20018;-52
2022/06/10 12:08:27;;;;;;;0.00;0.00;;;;;;;;;;6115705;23;20340;-52
2022/06/10 12:11:03;;;;;;;0.70;0.10;;;;;;;;;;6117268;23;20014;-53
2022/06/10 12:13:33;;;;;;;0.00;0.00;;;;;;;;;;6113411;23;20307;-52
2022/06/10 12:15:58;;;;;;;0.10;0.10;;;;;;;;;;6119093;23;20061;-53
2022/06/10 12:18:27;;;;;;;0.00;0.00;;;;;;;;;;6111828;23;20014;-53
2022/06/10 12:20:55;;;;;;;0.00;0.00;;;;;;;;;;6119717;23;20012;-51
2022/06/10 12:23:22;;;;;;;1.77;1.10;;;;;;;;;;6112655;23;20382;-52
2022/06/10 12:25:55;;;;;;;0.40;0.40;;;;;;;;;;6117059;23;20037;-53
2022/06/10 12:28:23;;;;;;;6.82;0.43;;;;;;;;;;6113689;23;20013;-51
2022/06/10 12:30:53;;;;;;;2.10;1.20;;;;;;;;;;6113062;23;20025;-51
2022/06/10 12:33:27;;;;;;;0.00;0.00;;;;;;;;;;6107326;23;20014;-52
2022/06/10 12:35:54;;;;;;;0.00;0.00;;;;;;;;;;6111806;23;20098;-50
2022/06/10 12:38:22;;;;;;;0.00;0.00;;;;;;;;;;6107375;23;20089;-52
2022/06/10 12:40:50;;;;;;;3.20;0.85;;;;;;;;;;6099778;23;20006;-48
2022/06/10 12:43:21;;;;;;;0.03;0.03;;;;;;;;;;6116738;23;20014;-50
2022/06/10 12:45:48;;;;;;;0.25;0.25;;;;;;;;;;6115540;23;20044;-51
2022/06/10 12:48:22;;;;;;;0.00;0.00;;;;;;;;;;6107445;23;20070;-54
2022/06/10 12:50:53;;;;;;;0.00;0.00;;;;;;;;;;6109348;23;20089;-54
2022/06/10 12:53:37;;;;;;;1.58;0.30;;;;;;;;;;6115957;23;20378;-51
2022/06/10 12:56:15;;;;;;;1.25;0.55;;;;;;;;;;6117971;23;20472;-50
2022/06/10 12:58:42;;;;;;;0.00;0.00;;;;;;;;;;6114749;23;20014;-53
2022/06/10 13:01:39;;;;;;;3.20;1.02;;;;;;;;;;6108179;23;20050;-54
2022/06/10 13:04:10;;;;;;;0.00;0.00;;;;;;;;;;6113474;23;20018;-54
2022/06/10 13:06:38;;;;;;;0.00;0.00;;;;;;;;;;6111893;23;20018;-53
2022/06/10 13:09:31;;;;;;;0.00;0.00;;;;;;;;;;6114491;23;20014;-49
2022/06/10 13:11:59;;;;;;;0.22;0.15;;;;;;;;;;6150172;23;20013;-51
2022/06/10 13:14:33;;;;;;;1.25;0.95;;;;;;;;;;6171733;23;20052;-53
2022/06/10 13:16:58;;;;;;;0.00;0.00;;;;;;;;;;6175795;23;20109;-49
2022/06/10 13:19:38;;;;;;;0.00;0.00;;;;;;;;;;6166381;23;20016;-51
2022/06/10 13:22:21;;;;;;;5.35;1.35;;;;;;;;;;6171905;23;20242;-51
2022/06/10 13:24:53;;;;;;;0.00;0.00;;;;;;;;;;6164001;23;20511;-48
2022/06/10 13:27:24;;;;;;;0.00;0.00;;;;;;;;;;6174462;23;20029;-54
2022/06/10 13:29:55;;;;;;;0.10;0.10;;;;;;;;;;6169344;23;20495;-50
2022/06/10 13:32:20;;;;;;;0.08;0.08;;;;;;;;;;6170623;23;20055;-52
2022/06/10 13:34:55;;;;;;;3.60;0.20;;;;;;;;;;6174389;23;20013;-51
2022/06/10 13:37:23;;;;;;;0.52;0.20;;;;;;;;;;6169565;23;20331;-52
2022/06/10 13:39:49;;;;;;;0.00;0.00;;;;;;;;;;6168914;23;20103;-51
2022/06/10 13:42:20;;;;;;;0.00;0.00;;;;;;;;;;6177076;23;20065;-51
2022/06/10 13:44:47;;;;;;;0.00;0.00;;;;;;;;;;6176725;23;20507;-52
2022/06/10 13:47:21;;;;;;;0.00;0.00;;;;;;;;;;6177131;23;20025;-52
2022/06/10 13:50:25;;;;;;;0.00;0.00;;;;;;;;;;6172389;23;20005;-51
2022/06/10 13:52:50;;;;;;;0.00;0.00;;;;;;;;;;6172639;23;20036;-51
2022/06/10 13:55:21;;;;;;;0.00;0.00;;;;;;;;;;6179285;23;20017;-53
2022/06/10 13:57:53;;;;;;;0.00;0.00;;;;;;;;;;6173200;23;20009;-51
2022/06/10 14:00:22;;;;;;;0.00;0.00;;;;;;;;;;6178579;23;20068;-52
2022/06/10 14:02:47;;;;;;;;;;;;;;;;;;6174719;23;20009;-51
2022/06/10 14:05:20;;;;;;;0.00;0.00;;;;;;;;;;6175050;23;19916;-52
2022/06/10 14:07:47;;;;;;;0.00;0.00;;;;;;;;;;6177029;23;20010;-53
2022/06/10 14:10:17;;;;;;;0.00;0.00;;;;;;;;;;6172119;23;20103;-55
2022/06/10 14:13:15;;;;;;;0.00;0.00;;;;;;;;;;6178007;23;20009;-52
2022/06/10 14:15:47;;;;;;;0.00;0.00;;;;;;;;;;6113086;23;20016;-51
2022/06/10 14:18:17;;;;;;;0.00;0.00;;;;;;;;;;6172442;23;20711;-52
2022/06/10 14:20:43;;;;;;;0.47;0.10;;;;;;;;;;6179266;23;20566;-49
2022/06/10 14:23:25;;;;;;;0.65;0.65;;;;;;;;;;6174051;23;20080;-49
2022/06/10 14:26:02;;;;;;;0.00;0.00;;;;;;;;;;6179442;23;20025;-50
2022/06/10 14:28:27;;;;;;;0.10;0.10;;;;;;;;;;6175964;23;20480;-47
2022/06/10 14:30:59;;;;;;;0.00;0.00;;;;;;;;;;6180189;23;20393;-51
2022/06/10 14:33:36;;;;;;;0.00;0.00;;;;;;;;;;6176305;23;20036;-51
2022/06/10 14:36:21;;;;;;;0.10;0.10;;;;;;;;;;6178869;23;20012;-53
2022/06/10 14:39:04;;;;;;;0.00;0.00;;;;;;;;;;6178334;23;20056;-53
2022/06/10 14:41:30;;;;;;;0.00;0.00;;;;;;;;;;6178005;23;20450;-47
2022/06/10 14:43:57;;;;;;;0.00;0.00;;;;;;;;;;6177981;23;20742;-51
2022/06/10 14:46:22;;;;;;;0.00;0.00;;;;;;;;;;6174978;23;20028;-53
2022/06/10 14:48:49;;;;;;;0.10;0.10;;;;;;;;;;6180802;23;20013;-52
2022/06/10 14:51:34;;;;;;;0.10;0.10;;;;;;;;;;6176481;23;20013;-50
2022/06/10 14:54:08;;;;;;;0.17;0.17;;;;;;;;;;6171661;23;20020;-51
2022/06/10 14:56:38;;;;;;;0.00;0.00;;;;;;;;;;6175506;23;20024;-51
2022/06/10 14:59:16;;;;;;;0.00;0.00;;;;;;;;;;6167776;23;20033;-49
2022/06/10 15:01:43;;;;;;;0.47;0.30;;;;;;;;;;6176602;23;20005;-52
2022/06/10 15:04:08;;;;;;;0.00;0.00;;;;;;;;;;6179502;23;20021;-50
2022/06/10 15:06:35;;;;;;;0.03;0.03;;;;;;;;;;6173130;23;20091;-52
2022/06/10 15:09:13;;;;;;;3.88;0.13;;;;;;;;;;6178329;23;20013;-52
2022/06/10 15:11:39;;;;;;;0.00;0.00;;;;;;;;;;6174001;23;20650;-50
2022/06/10 15:14:05;;;;;;;0.00;0.00;;;;;;;;;;6178299;23;20023;-52
2022/06/10 15:16:30;;;;;;;0.00;0.00;;;;;;;;;;6172484;23;20029;-53
2022/06/10 15:18:56;;;;;;;0.00;0.00;;;;;;;;;;6177185;23;20084;-51
2022/06/10 15:21:23;;;;;;;0.25;0.25;;;;;;;;;;6173637;23;20022;-54